首页
METAR-TAF:

METAR-TAF

机场 :

安科纳, 意大利

纬度: 43-37N, 经度: 013-22E, 海拔: 12米

当前天气观测

该预报发布于42分钟前的00:50 UTC
风速3节,风向南转南东
温度 13°C
湿度 82%
气压 1019 hPa
能见度10公里或以上

METAR: LIPY 170050Z AUTO 16003KT 9999 NCD 13/10 Q1019

时间: 03:32 (01:32 UTC)

预报

该预报发布于2小时和32分钟前的23:00 UTC
预报有效从17日的 00点(UTC)到 17日的 24点(UTC)
风速8节,风向西南
能见度10公里或以上
散云层高于3000英尺
成为
从 17日的 09点(UTC)到 17日的 11点(UTC)
风速10节,风向北转东北

TAF: LIPY 162300Z 1700/1724 23008KT 9999 SCT030 BECMG 1709/1711 02010KT

超过4000个机场的气象观测和天气预报(METAR&TAF报告)。

可查询的气象台以黄色和红色小点在地图上表示。

将鼠标移到小点上方,可查看气象台名称。

然后点击查看天气观测和预报。

如需切换地图:点击带黑十字的绿色按钮放大地图;点击带横线的绿色按钮缩小地图;或者点击绿色箭头查看邻近地区的地图。


METAR-TAF: